Tiempo atmosférico en la estación meteorológica de Álora, Málaga (181 m.)



Fecha
DESCASC
Temp. máxima en grados centígrados (hora)
DESCASC
Temp. mínima en grados centígrados (hora)
DESCASC
Temp. media en grados centígrados
DESCASC
Racha de viento máxima en m/sg (hora)
DESCASC
Velocidad máxima media en intervalos de 10 minutos(hora)
DESCASC
Precipitaciones diarias en mm
DESCASC
Precipitaciones de 00:00 a 06:00 en mm
DESCASC
Precipitaciones de 06:00 a 12:00 en mm
DESCASC
Precipitaciones de 12:00 a 18:00 en mm
DESCASC
Precipitaciones de 18:00 a 24:00 en mm
DESCASC
10-07-2020 33.6 (17:20) 18.3 (06:50) 25.9 9.17 (14:20) 5.56 (14:00) 0 0 0 0 0
09-07-2020 34.2 (16:00) 19.6 (07:20) 26.9 10.56 (14:20) 5.28 (14:30) 0 0 0 0 0
08-07-2020 33.6 (17:30) 22.3 (07:30) 27.9 11.94 (13:00) 7.5 (14:10) 0 0 0 0 0
07-07-2020 38.9 (16:30) 20.1 (07:10) 29.5 7.78 (16:50) 5.56 (16:50) 0 0 0 0 0
06-07-2020 36.8 (15:50) 18.9 (07:50) 27.8 9.72 (17:00) 6.11 (16:20) 0 0 0 0 0
05-07-2020 32.8 (17:50) 19 (06:50) 25.9 11.67 (13:50) 7.78 (16:10) 0 0 0 0 0
04-07-2020 30.9 (16:20) 20.7 (07:40) 25.8 8.61 (16:10) 6.11 (12:40) 0 0 0 0 0
15-06-2020 32.9 (18:10) 17.5 (07:30) 25.2 10.83 (10:00) 6.11 (09:40) 0 0 0 0 0
14-06-2020 30.4 (16:40) 17.6 (07:20) 24 11.11 (21:10) 6.11 (17:10) 0 0 0 0 0
13-06-2020 29.4 (18:40) 15.3 (07:00) 22.3 8.33 (16:20) 4.72 (20:10) 0 0 0 0 0
12-06-2020 25.5 (16:50) 16.1 (06:20) 20.8 14.17 (14:20) 8.89 (14:20) 0 0 0 0 0

Gráficas

Temp. máximas Temp. mínimas Temp. medias Precipitaciones Rachas de viento máximas Velocidades máximas media en intervalos de 10 minutos

Datos horarios

Fecha y hora oficial Temperatura (ºC) Velocidad del viento (km/h) Dirección del viento Racha (km/h) Dirección de racha Precipitación (mm) Presión (hPa) Tendencia (hPa) Humedad (%)
2020-07-11 23:00:00 24.8 17 Sur 26 Sur 0 -- -- 69
2020-07-11 22:00:00 24.8 13 Sudeste 34 Sur 0 -- -- 71
2020-07-11 21:00:00 25.4 15 Sudeste 29 Sudeste 0 -- -- 69
2020-07-11 20:00:00 26.2 21 Sudeste 30 Sudeste 0 -- -- 68
2020-07-11 19:00:00 27.8 20 Sur 34 Sudeste 0 -- -- 62
2020-07-11 18:00:00 26.8 21 Sudeste 34 Sudeste 0 -- -- 67
2020-07-11 17:00:00 27.6 24 Sur 44 Sur 0 -- -- 65
2020-07-11 16:00:00 28.2 22 Sudeste 41 Sudeste 0 -- -- 62
2020-07-11 15:00:00 28.2 26 Sudeste 39 Sur 0 -- -- 60
2020-07-11 14:00:00 27.3 24 Sudeste 36 Sur 0 -- -- 64
2020-07-11 13:00:00 26.5 22 Sudeste 35 Sur 0 -- -- 66
2020-07-11 12:00:00 27.1 21 Sudeste 30 Sudeste 0 -- -- 63
2020-07-11 11:00:00 26.4 18 Sudeste 24 Sudeste 0 -- -- 60
2020-07-11 10:00:00 25.2 15 Sur 20 Sur 0 -- -- 59
2020-07-11 09:00:00 21.7 3 Sudeste 6 Este 0 -- -- 63
2020-07-11 08:00:00 19.8 0 Calma 5 Sudoeste 0 -- -- 67
2020-07-11 07:00:00 19.8 2 Oeste 4 Oeste 0 -- -- 66
2020-07-11 06:00:00 20.2 0 Calma 5 Noroeste 0 -- -- 64
2020-07-11 05:00:00 20.8 0 Calma 6 Este 0 -- -- 60
2020-07-11 04:00:00 21.4 7 Este 8 Nordeste 0 -- -- 57
2020-07-11 03:00:00 21.8 2 Sudoeste 5 Nordeste 0 -- -- 64
2020-07-11 02:00:00 23.1 3 Este 9 Este 0 -- -- 55
2020-07-11 01:00:00 23.5 6 Este 10 Sudeste 0 -- -- 62
2020-07-11 00:00:00 24.7 4 Sur 8 Sur 0 -- -- 56
2020-07-10 23:00:00 25.9 3 Sudeste 12 Sudoeste 0 -- -- 46
2020-07-10 22:00:00 26.9 11 Sur 18 Sur 0 -- -- 42
2020-07-10 21:00:00 29.3 13 Sur 23 Sur 0 -- -- 41
2020-07-10 20:00:00 31.2 15 Sur 23 Sur 0 -- -- 38
2020-07-10 19:00:00 32.3 18 Sur 26 Sur 0 -- -- 36
2020-07-10 18:00:00 33.3 19 Sur 27 Sur 0 -- -- 35
2020-07-10 17:00:00 33.1 17 Sur 26 Este 0 -- -- 34
2020-07-10 16:00:00 33 18 Sur 32 Sudeste 0 -- -- 33
2020-07-10 15:00:00 32.6 17 Sudeste 33 Sur 0 -- -- 35
2020-07-10 14:00:00 33.1 20 Sur 29 Sur 0 -- -- 34
2020-07-10 13:00:00 31.4 14 Sur 24 Sudeste 0 -- -- 39
2020-07-10 12:00:00 29.4 10 Sudeste 20 Sur 0 -- -- 42
2020-07-10 11:00:00 27 8 Sur 17 Sur 0 -- -- 48
2020-07-10 10:00:00 23.8 4 Este 7 Este 0 -- -- 56
2020-07-10 09:00:00 19.8 3 Oeste 6 Sudoeste 0 -- -- 68
2020-07-10 08:00:00 18.4 0 Calma 3 Sudeste 0 -- -- 73
2020-07-10 07:00:00 18.3 3 Norte 6 Noroeste 0 -- -- 74
2020-07-10 06:00:00 18.7 4 Norte 6 Norte 0 -- -- 77
2020-07-10 05:00:00 19.3 0 Calma 4 Noroeste 0 -- -- 79
2020-07-10 04:00:00 19.9 0 Calma 4 Sudoeste 0 -- -- 79
2020-07-10 03:00:00 20.3 0 Calma 6 Sur 0 -- -- 79
2020-07-10 02:00:00 21.2 4 Este 11 Sudeste 0 -- -- 78
2020-07-10 01:00:00 22 4 Sudeste 8 Sudeste 0 -- -- 71
2020-07-10 00:00:00 22.7 5 Sudeste 11 Sudeste 0 -- -- 67
2020-07-09 23:00:00 24.3 4 Sudeste 9 Sur 0 -- -- 59
2020-07-09 22:00:00 26.6 9 Sudoeste 18 Sudoeste 0 -- -- 46
2020-07-09 21:00:00 29 10 Sur 15 Sur 0 -- -- 38
2020-07-09 20:00:00 31.3 10 Sur 22 Sudeste 0 -- -- 33
2020-07-09 19:00:00 31.9 14 Sudeste 25 Sur 0 -- -- 33
2020-07-09 18:00:00 33.9 19 Sur 27 Sur 0 -- -- 32
2020-07-09 17:00:00 33.7 14 Sudeste 24 Sur 0 -- -- 31
2020-07-09 16:00:00 34.2 13 Sur 27 Sur 0 -- -- 31
2020-07-09 15:00:00 32.6 13 Sudeste 38 Sudeste 0 -- -- 31
2020-07-09 14:00:00 32.3 18 Sudeste 35 Sur 0 -- -- 30
2020-07-09 13:00:00 31.4 12 Sur 21 Sur 0 -- -- 36
2020-07-09 12:00:00 29.8 5 Este 16 Sudoeste 0 -- -- 41
2020-07-09 11:00:00 27.2 6 Sudoeste 10 Oeste 0 -- -- 48
2020-07-09 10:00:00 24.3 3 Sudoeste 6 Sudoeste 0 -- -- 59
2020-07-09 09:00:00 21.3 2 Oeste 5 Este 0 -- -- 67
2020-07-09 08:00:00 19.8 0 Calma 9 Norte 0 -- -- 69
2020-07-09 07:00:00 19.7 4 Noroeste 7 Noroeste 0 -- -- 73
2020-07-09 06:00:00 20.1 0 Calma 5 Nordeste 0 -- -- 71
2020-07-09 05:00:00 20.6 2 Norte 5 Oeste 0 -- -- 71
2020-07-09 04:00:00 20.9 4 Noroeste 11 Nordeste 0 -- -- 70
2020-07-09 03:00:00 21.8 2 Noroeste 4 Noroeste 0 -- -- 66
2020-07-09 02:00:00 22.7 0 Calma 9 Nordeste 0 -- -- 63
2020-07-09 01:00:00 24 6 Este 10 Este 0 -- -- 59
2020-07-09 00:00:00 24.7 4 Sudeste 21 Sudeste 0 -- -- 57
2020-07-08 23:00:00 25.4 14 Sudeste 19 Sudeste 0 -- -- 52
2020-07-08 22:00:00 27.7 6 Sudeste 20 Este 0 -- -- 41
2020-07-08 21:00:00 30.2 14 Sudeste 23 Sudeste 0 -- -- 32
2020-07-08 20:00:00 31.6 18 Sudeste 23 Sudeste 0 -- -- 29
2020-07-08 19:00:00 31.9 13 Este 27 Este 0 -- -- 28
2020-07-08 18:00:00 33.3 15 Sudeste 28 Este 0 -- -- 25
2020-07-08 17:00:00 33.1 15 Sudeste 33 Sudeste 0 -- -- 26
2020-07-08 16:00:00 32.9 16 Sudeste 35 Sur 0 -- -- 28
2020-06-18 00:00:00 -- -- -- -- -- -- -- -- --
2020-06-17 23:00:00 25.3 12 Noroeste 37 Oeste 0 -- -- 44
2020-06-17 22:00:00 26.8 12 Noroeste 25 Noroeste 0 -- -- 40
2020-06-17 21:00:00 28.9 10 Noroeste 27 Noroeste 0 -- -- 34
2020-06-17 20:00:00 30.6 13 Noroeste 31 Oeste 0 -- -- 31
2020-06-17 19:00:00 31.7 18 Noroeste 36 Noroeste 0 -- -- 30
2020-06-17 18:00:00 32.4 14 Noroeste 34 Oeste 0 -- -- 30
2020-06-17 17:00:00 32.9 12 Noroeste 33 Noroeste 0 -- -- 30
2020-06-17 16:00:00 32.1 14 Noroeste 28 Norte 0 -- -- 30
2020-06-17 15:00:00 30.8 18 Noroeste 32 Oeste 0 -- -- 32
2020-06-17 14:00:00 29.8 14 Oeste 35 Noroeste 0 -- -- 36
2020-06-17 13:00:00 28.8 12 Noroeste 31 Norte 0 -- -- 39
2020-06-17 12:00:00 27.4 10 Noroeste 33 Noroeste 0 -- -- 43
2020-06-17 11:00:00 25.5 12 Noroeste 23 Noroeste 0 -- -- 50
2020-06-17 10:00:00 23.2 13 Noroeste 26 Noroeste 0 -- -- 56
2020-06-17 09:00:00 22.2 8 Noroeste 21 Noroeste 0 -- -- 61
2020-06-17 08:00:00 20.5 7 Noroeste 27 Oeste 0 -- -- 67
2020-06-17 07:00:00 20 10 Noroeste 33 Noroeste 0 -- -- 67
2020-06-17 06:00:00 20.8 17 Noroeste 32 Noroeste 0 -- -- 64
2020-06-17 05:00:00 21 12 Noroeste 27 Oeste 0 -- -- 63
2020-06-17 04:00:00 21.4 10 Noroeste 25 Noroeste 0 -- -- 62
2020-06-17 03:00:00 22 14 Noroeste 30 Oeste 0 -- -- 59
2020-06-17 02:00:00 22 14 Noroeste 26 Noroeste 0 -- -- 60
2020-06-17 01:00:00 22.4 13 Noroeste 23 Oeste 0 -- -- 61
2020-06-17 00:00:00 23 11 Noroeste 24 Norte 0 -- -- 59
2020-06-16 23:00:00 23.7 10 Noroeste 21 Noroeste 0 -- -- 58
2020-06-16 22:00:00 25.4 9 Noroeste 37 Oeste 0 -- -- 51
2020-06-16 21:00:00 26.9 15 Noroeste 39 Oeste 0 -- -- 44
2020-06-16 20:00:00 28.8 14 Noroeste 50 Oeste 0 -- -- 40
2020-06-16 19:00:00 30 17 Noroeste 41 Noroeste 0 -- -- 37
2020-06-16 18:00:00 30.4 16 Oeste 42 Oeste 0 -- -- 34
2020-06-16 17:00:00 30.9 15 Noroeste 41 Oeste 0 -- -- 30
2020-06-16 16:00:00 30.9 20 Noroeste 42 Oeste 0 -- -- 30
2020-06-16 15:00:00 29.9 22 Noroeste 43 Oeste 0 -- -- 29
2020-06-16 14:00:00 29.7 16 Noroeste 39 Noroeste 0 -- -- 30
2020-06-16 13:00:00 28 15 Noroeste 34 Noroeste 0 -- -- 36
2020-06-16 12:00:00 25.9 14 Noroeste 34 Noroeste 0 -- -- 42
2020-06-16 11:00:00 25.2 13 Noroeste 29 Noroeste 0 -- -- 42
2020-06-16 10:00:00 22.9 10 Noroeste 27 Oeste 0 -- -- 50
2020-06-16 09:00:00 21.4 7 Noroeste 22 Oeste 0 -- -- 54
2020-06-16 08:00:00 19.8 12 Noroeste 27 Noroeste 0 -- -- 56
2020-06-16 07:00:00 19.9 13 Noroeste 43 Oeste 0 -- -- 53
2020-06-16 06:00:00 20.8 15 Noroeste 34 Noroeste 0 -- -- 50
2020-06-16 05:00:00 20.9 10 Norte 22 Norte 0 -- -- 49
2020-06-16 04:00:00 20.5 11 Norte 19 Norte 0 -- -- 49
2020-06-16 03:00:00 21.8 11 Norte 25 Norte 0 -- -- 46
2020-06-16 02:00:00 21.4 8 Norte 26 Norte 0 -- -- 45
2020-06-16 01:00:00 22 9 Norte 21 Noroeste 0 -- -- 43
2020-06-16 00:00:00 23.3 14 Noroeste 27 Noroeste 0 -- -- 42
2020-06-15 23:00:00 24.3 13 Noroeste 36 Norte 0 -- -- 41
2020-06-15 22:00:00 26.2 15 Noroeste 39 Oeste 0 -- -- 40
2020-06-15 21:00:00 29 13 Noroeste 29 Noroeste 0 -- -- 36
2020-06-15 20:00:00 31.1 14 Noroeste 31 Noroeste 0 -- -- 31
2020-06-15 19:00:00 32.3 16 Noroeste 33 Noroeste 0 -- -- 27
2020-06-15 18:00:00 32.8 13 Noroeste 32 Oeste 0 -- -- 27
2020-06-15 17:00:00 32.8 12 Noroeste 28 Oeste 0 -- -- 28
2020-06-15 16:00:00 31.9 13 Noroeste 35 Oeste 0 -- -- 29
2020-06-15 15:00:00 30.7 15 Noroeste 32 Oeste 0 -- -- 29
2020-06-15 14:00:00 29.1 15 Oeste 34 Oeste 0 -- -- 33
2020-06-15 13:00:00 27.4 17 Oeste 32 Oeste 0 -- -- 38
2020-06-15 12:00:00 25.1 15 Oeste 31 Oeste 0 -- -- 44
2020-06-15 11:00:00 22.8 18 Oeste 33 Noroeste 0 -- -- 50
2020-06-15 10:00:00 20.8 22 Oeste 39 Oeste 0 -- -- 55
2020-06-15 09:00:00 20.1 15 Noroeste 32 Oeste 0 -- -- 56
2020-06-15 08:00:00 18.3 9 Noroeste 18 Norte 0 -- -- 59
2020-06-15 07:00:00 17.8 13 Noroeste 24 Norte 0 -- -- 59
2020-06-15 06:00:00 18.2 11 Norte 32 Norte 0 -- -- 57
2020-06-15 05:00:00 18.7 18 Norte 33 Noroeste 0 -- -- 56
2020-06-15 04:00:00 18.4 14 Norte 22 Noroeste 0 -- -- 58
2020-06-15 03:00:00 18.6 9 Noroeste 20 Noroeste 0 -- -- 56
2020-06-15 02:00:00 19 7 Noroeste 18 Norte 0 -- -- 55
2020-06-15 01:00:00 20.2 9 Norte 26 Noroeste 0 -- -- 51
2020-06-15 00:00:00 20.8 10 Noroeste 28 Noroeste 0 -- -- 50
2020-06-14 23:00:00 21.8 12 Noroeste 30 Oeste 0 -- -- 47
2020-06-14 22:00:00 23.3 13 Noroeste 40 Oeste 0 -- -- 42
2020-06-14 21:00:00 25.6 15 Noroeste 36 Oeste 0 -- -- 39
2020-06-14 20:00:00 27.8 15 Noroeste 37 Oeste 0 -- -- 36
2020-06-14 19:00:00 29.5 16 Noroeste 36 Oeste 0 -- -- 32
2020-06-14 18:00:00 30.3 13 Noroeste 37 Oeste 0 -- -- 29
2020-06-14 17:00:00 30.1 21 Oeste 38 Oeste 0 -- -- 28
2020-06-14 16:00:00 30.3 15 Noroeste 32 Oeste 0 -- -- 28
2020-06-14 15:00:00 29.2 12 Noroeste 30 Oeste 0 -- -- 31
2020-06-14 14:00:00 28.3 16 Noroeste 30 Oeste 0 -- -- 33
2020-06-14 13:00:00 26.7 14 Noroeste 31 Noroeste 0 -- -- 37
2020-06-14 12:00:00 25.2 16 Oeste 32 Oeste 0 -- -- 39
2020-06-14 11:00:00 23.9 16 Noroeste 31 Oeste 0 -- -- 41
2020-06-14 10:00:00 22 12 Noroeste 30 Noroeste 0 -- -- 44
2020-06-14 09:00:00 19.8 14 Noroeste 32 Oeste 0 -- -- 50
2020-06-14 08:00:00 17.9 10 Noroeste 24 Noroeste 0 -- -- 55
2020-06-14 07:00:00 17.8 8 Norte 18 Norte 0 -- -- 55
2020-06-14 06:00:00 18.2 10 Norte 22 Norte 0 -- -- 54
2020-06-14 05:00:00 18.8 10 Noroeste 23 Noroeste 0 -- -- 52
2020-06-14 04:00:00 19.5 7 Noroeste 20 Norte 0 -- -- 50
2020-06-14 03:00:00 19.6 8 Norte 22 Noroeste 0 -- -- 50
2020-06-14 02:00:00 20.2 9 Noroeste 19 Norte 0 -- -- 48
2020-06-14 01:00:00 20.5 10 Noroeste 28 Oeste 0 -- -- 47
2020-06-14 00:00:00 21.2 12 Noroeste 28 Oeste 0 -- -- 45
2020-06-13 23:00:00 22.2 11 Noroeste 21 Norte 0 -- -- 41
2020-06-13 22:00:00 23.5 8 Noroeste 25 Norte 0 -- -- 36
2020-06-13 21:00:00 25.5 8 Noroeste 29 Noroeste 0 -- -- 34
2020-06-13 20:00:00 28.4 12 Noroeste 27 Oeste 0 -- -- 30
2020-06-13 19:00:00 29.2 8 Noroeste 24 Oeste 0 -- -- 28
2020-06-13 18:00:00 29.1 5 Noroeste 26 Oeste 0 -- -- 28
2020-06-13 17:00:00 28.3 7 Norte 30 Oeste 0 -- -- 30
2020-06-13 16:00:00 28.1 6 Noroeste 27 Oeste 0 -- -- 31
2020-06-13 15:00:00 26.7 9 Norte 27 Noroeste 0 -- -- 34
2020-06-13 14:00:00 25.6 11 Noroeste 28 Oeste 0 -- -- 35
2020-06-13 13:00:00 23.4 6 Noroeste 22 Nordeste 0 -- -- 41
2020-06-13 12:00:00 22.5 6 Norte 18 Noroeste 0 -- -- 45
2020-06-13 11:00:00 20.6 10 Noroeste 21 Oeste 0 -- -- 50
2020-06-13 10:00:00 18.8 8 Noroeste 18 Noroeste 0 -- -- 59
2020-06-13 09:00:00 17.1 8 Norte 22 Norte 0 -- -- 64
2020-06-13 08:00:00 15.9 10 Norte 21 Norte 0 -- -- 69
2020-06-13 07:00:00 15.3 9 Norte 19 Norte 0 -- -- 71
2020-06-13 06:00:00 15.8 12 Norte 23 Norte 0 -- -- 68
2020-06-13 05:00:00 16.2 10 Noroeste 23 Noroeste 0 -- -- 66
2020-06-13 04:00:00 16.3 12 Nordeste 25 Oeste 0 -- -- 62
2020-06-13 03:00:00 16.5 12 Noroeste 24 Noroeste 0 -- -- 63
2020-06-13 02:00:00 16.6 12 Noroeste 24 Oeste 0 -- -- 63
2020-06-13 01:00:00 17.3 6 Norte 24 Nordeste 0 -- -- 60
2020-06-13 00:00:00 17.9 12 Oeste 30 Oeste 0 -- -- 57
2020-06-12 23:00:00 18.7 4 Noroeste 24 Oeste 0 -- -- 52
2020-06-12 22:00:00 20 9 Noroeste 36 Noroeste 0 -- -- 48
2020-06-12 21:00:00 22 15 Oeste 31 Oeste 0 -- -- 43
2020-06-12 20:00:00 22.5 15 Oeste 46 Oeste 0 -- -- 42
2020-06-12 19:00:00 22.9 24 Noroeste 44 Oeste 0 -- -- 43
2020-06-12 18:00:00 23.7 17 Noroeste 36 Oeste 0 -- -- 44
2020-06-12 17:00:00 25 18 Noroeste 33 Oeste 0 -- -- 41
2020-06-12 16:00:00 25.2 12 Noroeste 32 Oeste 0 -- -- 42
2020-06-12 15:00:00 24.5 14 Oeste 51 Oeste 0 -- -- 44
2020-06-12 14:00:00 22 19 Noroeste 39 Oeste 0 -- -- 50
2020-06-12 13:00:00 20.8 16 Noroeste 32 Noroeste 0 -- -- 55
2020-06-12 12:00:00 20 12 Noroeste 30 Norte 0 -- -- 57
2020-06-12 11:00:00 19.3 12 Noroeste 28 Norte 0 -- -- 58
2020-06-12 10:00:00 17.6 8 Noroeste 24 Oeste 0 -- -- 64
2020-06-12 09:00:00 16.9 5 Norte 20 Oeste 0 -- -- 74
2020-06-12 08:00:00 16.8 9 Noroeste 28 Noroeste 0 -- -- 75
2020-06-12 07:00:00 16.4 12 Noroeste 26 Oeste 0 -- -- 79
2020-06-12 06:00:00 16.6 8 Noroeste 29 Noroeste 0 -- -- 85
2020-06-12 05:00:00 18.2 10 Noroeste 28 Oeste 0 -- -- 69
2020-06-12 04:00:00 18.6 5 Noroeste 30 Oeste 0 -- -- 67
2020-06-12 03:00:00 19.2 7 Noroeste 21 Oeste 0 -- -- 67
2020-06-12 02:00:00 19.5 9 Noroeste 24 Oeste 0 -- -- 62
2020-06-12 01:00:00 19.6 9 Noroeste 17 Noroeste 0 -- -- 62
2020-06-12 00:00:00 20 8 Noroeste 28 Oeste 0 -- -- 59